createdAt,value
2017-07-15T06:34:22.975Z,55.2
2017-07-15T06:35:24.329Z,56.2
2017-07-15T06:36:45.841Z,52.1
2017-07-15T06:37:47.198Z,52.1
2017-07-15T06:39:08.728Z,53.5
2017-07-15T06:40:10.086Z,53.0
2017-07-15T06:41:31.601Z,53.5
2017-07-15T06:42:32.965Z,54.0
2017-07-15T06:43:54.497Z,54.5
2017-07-15T06:44:55.886Z,54.8
2017-07-15T06:46:17.383Z,54.1
2017-07-15T06:47:19.614Z,54.9
2017-07-15T06:48:41.436Z,54.2
2017-07-15T06:49:42.798Z,54.0
2017-07-15T06:51:04.318Z,54.0
2017-07-15T06:52:05.689Z,54.3
2017-07-15T06:53:27.228Z,54.4
2017-07-15T06:54:28.591Z,54.5
2017-07-15T06:55:50.113Z,54.4
2017-07-15T06:56:51.481Z,54.8
2017-07-15T06:58:13.022Z,54.6
2017-07-15T06:59:14.387Z,54.9
2017-07-15T07:00:35.911Z,55.1
2017-07-15T07:01:38.190Z,55.0
2017-07-15T07:02:59.730Z,55.3
2017-07-15T07:04:01.095Z,55.3
2017-07-15T07:05:22.648Z,55.8
2017-07-15T07:06:24.017Z,55.2
2017-07-15T07:07:45.553Z,54.9
2017-07-15T07:08:46.919Z,55.1
2017-07-15T07:10:08.446Z,55.3
2017-07-15T07:11:09.814Z,55.6
2017-07-15T07:12:31.377Z,55.3
2017-07-15T07:13:32.746Z,55.1
2017-07-15T07:14:54.268Z,54.4
2017-07-15T07:15:55.636Z,54.1
2017-07-15T07:17:17.187Z,54.2
2017-07-15T07:18:18.671Z,53.8
2017-07-15T07:19:40.238Z,53.7
2017-07-15T07:20:41.605Z,53.8
2017-07-15T07:22:03.201Z,54.1
2017-07-15T07:23:04.599Z,53.8
2017-07-15T07:24:26.110Z,53.9
2017-07-15T07:25:27.475Z,53.8
2017-07-15T07:26:49.005Z,53.7
2017-07-15T07:27:50.363Z,53.8
2017-07-15T07:29:11.901Z,54.2
2017-07-15T15:15:57.108Z,44.1
2017-07-15T15:16:58.493Z,42.7
2017-07-15T15:18:20.007Z,43.1
2017-07-15T15:19:21.371Z,43.0
2017-07-15T15:20:42.898Z,43.2
2017-07-15T15:21:44.261Z,41.9
2017-07-15T15:23:05.803Z,42.3
2017-07-15T15:24:07.170Z,42.5
2017-07-15T15:25:29.813Z,43.5
2017-07-15T15:26:31.865Z,43.5
2017-07-15T15:27:53.438Z,43.5
2017-07-15T15:28:54.810Z,52.7
2017-07-15T15:30:16.335Z,42.0
2017-07-15T15:31:17.703Z,41.3
2017-07-15T15:32:39.258Z,41.5
2017-07-15T15:44:45.182Z,33.9
2017-07-15T15:45:46.640Z,34.2
2017-07-15T15:47:08.275Z,34.6
2017-07-15T15:48:09.648Z,35.3
2017-07-15T18:32:37.957Z,40.2
2017-07-15T18:33:39.328Z,40.1
2017-07-15T18:35:00.864Z,41.4
2017-07-15T18:44:32.452Z,42.0
2017-07-15T18:45:33.818Z,42.1
2017-07-15T18:46:55.337Z,42.1
2017-07-15T18:47:56.700Z,42.5
2017-07-15T18:49:18.235Z,42.6
2017-07-15T18:50:19.599Z,42.6
2017-07-15T18:51:41.115Z,42.7
2017-07-15T18:52:42.477Z,42.7
2017-07-15T18:54:04.018Z,42.1
2017-07-15T18:55:05.384Z,41.8
2017-07-15T18:56:26.900Z,42.8
2017-07-15T18:57:28.284Z,43.2
2017-07-15T18:58:49.826Z,43.1
2017-07-15T18:59:51.187Z,43.1
2017-07-15T19:01:12.709Z,42.9
2017-07-15T19:02:14.072Z,43.2
2017-07-15T19:03:35.608Z,43.5
2017-07-15T19:04:36.971Z,43.3
2017-07-15T19:05:58.493Z,43.1
2017-07-15T19:06:59.873Z,42.8
2017-07-15T19:08:21.400Z,43.3
2017-07-15T19:09:22.806Z,43.0
2017-07-15T19:10:44.327Z,42.9
2017-07-15T19:11:45.691Z,43.1
2017-07-15T19:13:07.239Z,43.3
2017-07-15T19:14:08.601Z,43.2
2017-07-15T19:15:30.157Z,44.0
2017-07-15T19:16:31.523Z,44.4
2017-07-15T19:17:53.043Z,44.3
2017-07-15T19:18:54.409Z,44.3
2017-07-15T19:20:15.967Z,44.7
2017-07-15T19:21:17.331Z,45.0
2017-07-15T19:22:38.898Z,46.5
2017-07-15T19:23:40.261Z,45.8
2017-07-15T19:25:01.805Z,45.3
2017-07-15T19:26:03.176Z,45.0
2017-07-15T19:27:24.878Z,45.4
2017-07-15T19:28:26.241Z,45.3
2017-07-15T19:29:47.783Z,45.9
2017-07-15T19:30:49.146Z,46.7
2017-07-15T19:32:11.199Z,47.0
2017-07-15T19:33:12.561Z,47.2
2017-07-15T19:34:34.106Z,47.1
2017-07-15T19:35:35.467Z,47.5
2017-07-15T19:36:56.988Z,47.9
2017-07-15T19:37:58.357Z,47.9
2017-07-15T19:39:19.886Z,47.9
2017-07-15T19:40:21.251Z,47.8
2017-07-15T19:41:42.764Z,47.2
2017-07-15T19:42:44.174Z,47.7
2017-07-15T19:44:05.708Z,47.3
2017-07-15T19:45:07.066Z,46.8
2017-07-15T19:46:28.585Z,46.7
2017-07-15T19:47:29.979Z,46.5
2017-07-15T19:48:51.517Z,46.7
2017-07-15T19:49:52.876Z,46.8
2017-07-15T19:51:14.400Z,46.6
2017-07-15T19:52:15.768Z,46.7
2017-07-15T19:53:37.318Z,46.6
2017-07-15T19:54:38.681Z,46.7
2017-07-15T19:56:00.194Z,46.8
2017-07-15T19:57:01.554Z,46.6
2017-07-15T19:58:23.073Z,46.7
2017-07-15T19:59:24.462Z,46.9
2017-07-15T20:00:45.993Z,46.8
2017-07-15T20:01:47.359Z,46.6
2017-07-15T20:03:08.870Z,46.8
2017-07-15T20:04:10.231Z,46.6
2017-07-15T20:05:31.769Z,47.4
2017-07-15T20:06:33.129Z,47.6
2017-07-15T20:07:54.821Z,47.8
2017-07-15T20:08:56.181Z,48.3
2017-07-15T20:10:17.944Z,47.7
2017-07-15T20:11:19.302Z,47.6
2017-07-15T20:12:40.830Z,47.4
2017-07-15T20:13:42.190Z,47.7
2017-07-15T20:15:03.718Z,47.6
2017-07-15T20:16:05.078Z,47.7
2017-07-15T20:17:26.588Z,47.2
2017-07-15T20:18:27.948Z,47.4
2017-07-15T20:19:49.481Z,47.7
2017-07-15T20:20:50.838Z,47.8
2017-07-15T20:22:12.353Z,47.2
2017-07-15T20:23:13.713Z,47.7
2017-07-15T20:24:35.253Z,47.2
2017-07-15T20:25:36.612Z,47.3
2017-07-15T20:26:58.128Z,48.4
2017-07-15T20:27:59.491Z,47.7
2017-07-15T20:29:21.025Z,47.7
2017-07-15T20:30:22.385Z,48.1
2017-07-15T20:31:43.898Z,48.2
2017-07-15T20:32:45.414Z,48.4
2017-07-15T20:34:06.949Z,48.4
2017-07-15T20:35:08.309Z,48.2
2017-07-15T20:36:29.858Z,48.7
2017-07-15T20:37:31.232Z,49.3
2017-07-15T20:38:52.746Z,50.3
2017-07-15T20:39:54.110Z,50.3
2017-07-15T20:41:15.645Z,50.4
2017-07-15T20:42:17.004Z,51.0
2017-07-15T20:43:38.518Z,51.1
2017-07-15T20:44:39.879Z,51.2
2017-07-15T20:46:01.416Z,51.7
2017-07-15T20:47:02.775Z,52.0
2017-07-15T20:48:24.289Z,52.2
2017-07-15T20:49:25.648Z,53.0
2017-07-15T20:50:47.336Z,53.5
2017-07-15T20:51:48.696Z,52.7
2017-07-15T20:53:10.211Z,52.8
2017-07-15T20:54:11.574Z,53.4
2017-07-15T20:55:33.102Z,53.5
2017-07-15T20:56:34.462Z,53.5
2017-07-15T20:57:55.978Z,53.7
2017-07-15T20:58:57.335Z,53.5
2017-07-15T21:00:18.873Z,53.9
2017-07-15T21:01:20.232Z,53.9
2017-07-15T21:02:41.743Z,53.8
2017-07-15T21:03:43.105Z,53.4
2017-07-15T21:05:04.648Z,53.4
2017-07-15T21:06:06.012Z,53.5
2017-07-15T21:07:27.523Z,54.0
2017-07-15T21:08:28.883Z,53.8
2017-07-15T21:09:50.433Z,53.9
2017-07-15T21:10:51.790Z,53.3
2017-07-15T21:12:13.304Z,53.6
2017-07-15T21:13:14.668Z,53.4
2017-07-15T21:14:36.198Z,53.7
2017-07-15T21:15:37.555Z,53.4
2017-07-15T21:16:59.069Z,53.1
2017-07-15T21:18:00.429Z,53.2
2017-07-15T21:19:21.964Z,53.8
2017-07-15T21:20:23.325Z,54.3
2017-07-15T21:21:44.835Z,54.3
2017-07-15T21:22:46.196Z,54.9
2017-07-15T21:24:07.707Z,54.4
2017-07-15T21:25:09.067Z,55.1
2017-07-15T21:26:30.600Z,54.9
2017-07-15T21:27:31.954Z,54.9
2017-07-15T21:28:53.483Z,54.9
2017-07-15T21:29:54.844Z,54.9
2017-07-15T21:31:16.378Z,55.3
2017-07-15T21:32:17.736Z,54.7
2017-07-15T21:33:39.244Z,55.0
2017-07-15T21:34:40.608Z,55.2
2017-07-15T21:36:02.136Z,54.6
2017-07-15T21:37:03.494Z,54.8
2017-07-15T21:38:25.005Z,55.0
2017-07-15T21:39:26.364Z,54.7
2017-07-15T21:40:47.899Z,54.0
2017-07-15T21:41:49.257Z,53.9
2017-07-15T21:43:10.768Z,54.7
2017-07-15T21:44:12.127Z,54.7
2017-07-15T21:45:33.656Z,54.8
2017-07-15T21:46:35.014Z,54.9
2017-07-15T21:47:56.528Z,54.9
2017-07-15T21:48:57.887Z,55.0
2017-07-15T21:50:19.417Z,54.8
2017-07-15T21:51:20.774Z,54.7
2017-07-15T21:52:42.284Z,55.2
2017-07-15T21:53:43.642Z,55.2
2017-07-15T21:55:05.177Z,54.8
2017-07-15T21:56:06.534Z,55.2
2017-07-15T21:57:28.060Z,54.9
2017-07-15T21:58:29.410Z,54.5
2017-07-15T21:59:50.943Z,54.9
2017-07-15T22:00:52.300Z,54.8
2017-07-15T22:02:13.812Z,55.4
2017-07-15T22:03:15.171Z,55.9
2017-07-15T22:04:36.702Z,56.5
2017-07-15T22:05:38.059Z,56.7
2017-07-15T22:06:59.574Z,56.5
2017-07-15T22:08:00.931Z,56.3
2017-07-15T22:09:22.447Z,57.0
2017-07-15T22:10:23.805Z,56.5
2017-07-15T22:11:45.338Z,56.5
2017-07-15T22:12:46.696Z,56.6
2017-07-15T22:14:08.204Z,56.4
